Time;durP1;ratioP1;P1;durP2;ratioP2;P2;SDS_P1;SDS_P2;PMS_P1;PMS_P2;Temp;Humidity;BMP_temperature;BMP_pressure;BME280_temperature;BME280_humidity;BME280_pressure;Samples;Min_cycle;Max_cycle;Signal;HPM_P1;HPM_P2
2024/02/14 00:01:19;;;;;;;5.00;2.17;;;22.00;58.40;;;;;;5055017;28;20430;-83
2024/02/14 00:03:46;;;;;;;3.30;1.80;;;22.00;58.40;;;;;;5055076;28;20528;-84
2024/02/14 00:06:13;;;;;;;3.03;2.00;;;22.00;59.00;;;;;;5055072;28;20437;-84
2024/02/14 00:08:40;;;;;;;3.00;1.97;;;22.00;58.40;;;;;;5055662;28;20532;-84
2024/02/14 00:11:08;;;;;;;4.13;2.37;;;22.00;58.40;;;;;;5055000;28;20438;-83
2024/02/14 00:13:35;;;;;;;3.87;2.03;;;22.00;58.40;;;;;;5054836;28;20488;-87
2024/02/14 00:16:02;;;;;;;5.20;2.50;;;22.00;58.40;;;;;;5055038;28;20465;-87
2024/02/14 00:18:29;;;;;;;4.00;2.33;;;22.00;58.40;;;;;;5054832;28;20464;-83
2024/02/14 00:20:56;;;;;;;5.80;2.20;;;22.00;58.40;;;;;;5054808;28;20453;-88
2024/02/14 00:23:22;;;;;;;4.17;1.53;;;22.00;58.40;;;;;;5055123;28;20525;-84
2024/02/14 00:25:49;;;;;;;4.17;2.17;;;22.00;58.40;;;;;;5055640;28;20451;-84
2024/02/14 00:28:17;;;;;;;4.60;2.70;;;22.00;58.40;;;;;;5054749;28;20445;-87
2024/02/14 00:30:47;;;;;;;4.70;1.77;;;22.00;59.00;;;;;;5054678;28;20442;-82
2024/02/14 00:33:14;;;;;;;4.10;2.03;;;22.00;58.40;;;;;;5054619;28;20441;-87
2024/02/14 00:35:40;;;;;;;3.40;2.00;;;22.10;58.50;;;;;;5054394;28;20977;-83
2024/02/14 00:38:08;;;;;;;4.60;2.23;;;22.00;58.40;;;;;;5054638;28;20437;-83
2024/02/14 00:40:34;;;;;;;4.50;2.10;;;21.90;58.30;;;;;;5054460;28;20529;-84
2024/02/14 00:43:01;;;;;;;3.63;1.80;;;21.90;58.30;;;;;;5054255;28;20440;-83
2024/02/14 00:45:29;;;;;;;3.40;1.60;;;21.90;58.30;;;;;;5054335;28;20438;-85
2024/02/14 00:47:56;;;;;;;3.40;1.90;;;21.90;58.30;;;;;;5054410;28;20963;-83
2024/02/14 00:50:23;;;;;;;4.00;2.20;;;21.90;58.40;;;;;;5054335;28;20488;-83
2024/02/14 00:52:50;;;;;;;3.50;1.83;;;21.90;58.40;;;;;;5054185;28;20449;-83
2024/02/14 00:55:16;;;;;;;3.47;1.83;;;21.90;58.40;;;;;;5054459;28;20488;-83
2024/02/14 00:57:43;;;;;;;4.27;1.73;;;21.90;58.40;;;;;;5053149;28;20928;-82
2024/02/14 01:00:10;;;;;;;2.97;1.67;;;21.90;58.40;;;;;;5053774;28;20946;-83
2024/02/14 01:02:38;;;;;;;3.80;2.20;;;21.90;58.40;;;;;;5054065;28;20452;-83
2024/02/14 01:05:06;;;;;;;4.30;1.80;;;21.90;58.40;;;;;;5054046;28;20441;-83
2024/02/14 01:07:33;;;;;;;3.50;1.53;;;21.90;58.40;;;;;;5054039;28;20928;-82
2024/02/14 01:10:00;;;;;;;4.27;1.80;;;21.90;58.40;;;;;;5053971;28;20433;-83
2024/02/14 01:12:26;;;;;;;2.70;1.60;;;21.90;58.40;;;;;;5054305;28;20429;-82
2024/02/14 01:14:54;;;;;;;3.20;1.53;;;21.90;58.40;;;;;;5054028;28;20984;-82
2024/02/14 01:17:21;;;;;;;3.60;1.60;;;21.90;58.40;;;;;;5053942;28;20512;-83
2024/02/14 01:19:49;;;;;;;2.57;1.70;;;21.90;58.40;;;;;;5053988;28;20444;-83
2024/02/14 01:22:16;;;;;;;4.00;1.80;;;21.90;58.40;;;;;;5054732;28;20441;-82
2024/02/14 01:24:43;;;;;;;3.83;1.57;;;21.90;58.40;;;;;;5057677;28;20421;-83
2024/02/14 01:27:10;;;;;;;3.40;1.70;;;21.90;58.40;;;;;;5072952;28;20437;-83
2024/02/14 01:29:37;;;;;;;3.43;1.90;;;21.90;58.40;;;;;;5071053;28;20453;-83
2024/02/14 01:32:06;;;;;;;2.30;1.33;;;22.00;58.50;;;;;;5067763;28;20444;-83
2024/02/14 01:34:33;;;;;;;4.67;2.17;;;22.00;58.40;;;;;;5054012;28;20480;-82
2024/02/14 01:37:01;;;;;;;2.43;1.40;;;22.00;58.40;;;;;;5054070;28;20805;-83
2024/02/14 01:39:28;;;;;;;2.77;1.50;;;22.00;58.40;;;;;;5053783;28;20448;-83
2024/02/14 01:41:55;;;;;;;4.60;1.90;;;22.00;58.40;;;;;;5054057;28;20434;-82
2024/02/14 01:44:21;;;;;;;2.17;1.53;;;22.00;58.40;;;;;;5053817;28;20524;-83
2024/02/14 01:46:48;;;;;;;5.60;1.57;;;22.00;58.40;;;;;;5054386;28;20441;-83
2024/02/14 01:49:17;;;;;;;4.27;2.20;;;22.00;58.30;;;;;;5060317;28;20438;-82
2024/02/14 01:51:45;;;;;;;10.10;1.50;;;22.00;58.30;;;;;;5062250;28;20480;-82
2024/02/14 01:54:15;;;;;;;2.73;1.30;;;22.00;58.30;;;;;;5061333;28;20823;-83
2024/02/14 01:56:42;;;;;;;2.70;1.37;;;22.00;58.30;;;;;;5053609;28;20532;-83
2024/02/14 01:59:10;;;;;;;4.27;2.00;;;22.00;58.30;;;;;;5053651;28;20444;-83
2024/02/14 02:01:37;;;;;;;2.27;1.27;;;22.00;58.30;;;;;;5053335;28;20784;-86
2024/02/14 02:04:05;;;;;;;3.10;1.47;;;22.00;58.20;;;;;;5055133;28;21035;-83
2024/02/14 02:06:32;;;;;;;3.10;1.57;;;22.00;58.20;;;;;;5057424;28;20447;-82
2024/02/14 02:08:59;;;;;;;2.53;1.53;;;22.10;58.30;;;;;;5057602;28;20433;-83
2024/02/14 02:11:28;;;;;;;2.40;1.50;;;22.10;58.30;;;;;;5057246;28;20434;-82
2024/02/14 02:13:55;;;;;;;2.40;1.53;;;22.00;58.20;;;;;;5057333;28;20853;-82
2024/02/14 02:16:22;;;;;;;2.87;1.30;;;22.10;58.20;;;;;;5057296;28;20499;-82
2024/02/14 02:18:49;;;;;;;2.60;1.50;;;22.10;58.30;;;;;;5057180;28;20433;-82
2024/02/14 02:21:19;;;;;;;2.10;1.50;;;22.10;58.20;;;;;;5065618;28;20795;-83
2024/02/14 02:23:47;;;;;;;3.33;1.63;;;22.10;58.20;;;;;;5057282;28;20925;-82
2024/02/14 02:26:14;;;;;;;2.10;1.10;;;22.10;58.20;;;;;;5057125;28;20442;-82
2024/02/14 02:28:43;;;;;;;2.30;1.23;;;22.10;58.10;;;;;;5057148;28;20452;-82
2024/02/14 02:31:10;;;;;;;2.60;1.50;;;22.10;58.10;;;;;;5057129;28;20441;-82
2024/02/14 02:33:37;;;;;;;2.57;1.50;;;22.10;58.10;;;;;;5056935;28;20437;-83
2024/02/14 02:36:04;;;;;;;3.00;1.60;;;22.20;58.10;;;;;;5057017;28;20587;-82
2024/02/14 02:38:31;;;;;;;2.53;1.43;;;22.10;58.10;;;;;;5057138;28;20444;-82
2024/02/14 02:41:00;;;;;;;2.47;1.43;;;22.10;58.00;;;;;;5056647;28;20439;-82
2024/02/14 02:43:28;;;;;;;2.40;1.40;;;22.10;58.00;;;;;;5057077;28;20467;-87
2024/02/14 02:45:55;;;;;;;2.40;1.40;;;22.20;58.10;;;;;;5056709;28;20490;-86
2024/02/14 02:48:22;;;;;;;2.90;1.50;;;22.20;58.10;;;;;;5056667;28;20443;-83
2024/02/14 02:50:50;;;;;;;2.00;1.23;;;22.10;58.00;;;;;;5057140;28;20543;-83
2024/02/14 02:53:17;;;;;;;2.37;1.30;;;22.10;58.00;;;;;;5056646;28;20802;-83
2024/02/14 02:55:44;;;;;;;2.43;1.33;;;22.20;58.10;;;;;;5056780;28;21013;-83
2024/02/14 02:58:13;;;;;;;2.10;1.03;;;22.20;58.00;;;;;;5056361;28;20442;-83
2024/02/14 03:00:40;;;;;;;2.93;1.40;;;22.10;58.00;;;;;;5056454;28;20487;-83
2024/02/14 03:03:08;;;;;;;2.47;1.30;;;22.20;58.00;;;;;;5056471;28;20943;-85
2024/02/14 03:05:36;;;;;;;3.60;1.77;;;22.20;58.00;;;;;;5056260;28;20545;-83
2024/02/14 03:08:02;;;;;;;2.43;1.40;;;22.20;58.00;;;;;;5056159;28;20468;-83
2024/02/14 03:10:29;;;;;;;2.93;1.40;;;22.20;58.00;;;;;;5056387;28;20429;-83
2024/02/14 03:12:56;;;;;;;2.97;1.67;;;22.20;58.00;;;;;;5056110;28;20848;-83
2024/02/14 03:15:26;;;;;;;1.80;1.10;;;22.20;58.00;;;;;;5054735;28;20485;-83
2024/02/14 03:17:52;;;;;;;2.00;1.20;;;22.20;57.90;;;;;;5056112;28;20940;-83
2024/02/14 03:20:19;;;;;;;2.90;1.60;;;22.20;57.90;;;;;;5055638;28;20818;-83
2024/02/14 03:22:47;;;;;;;2.23;1.40;;;22.20;57.90;;;;;;5056100;28;20440;-83
2024/02/14 03:25:15;;;;;;;1.80;1.10;;;22.20;57.90;;;;;;5055873;28;20516;-83
2024/02/14 03:27:42;;;;;;;2.40;1.10;;;22.20;58.50;;;;;;5056012;28;20443;-82
2024/02/14 03:30:09;;;;;;;1.53;1.00;;;22.20;57.90;;;;;;5056206;28;20430;-83
2024/02/14 03:32:37;;;;;;;2.63;1.30;;;22.20;57.90;;;;;;5055913;28;20472;-82
2024/02/14 03:35:04;;;;;;;2.63;1.40;;;22.20;58.00;;;;;;5055865;28;20493;-83
2024/02/14 03:37:32;;;;;;;2.27;1.20;;;22.20;58.00;;;;;;5055710;28;20444;-82
2024/02/14 03:40:00;;;;;;;1.63;1.10;;;22.20;57.90;;;;;;5055530;28;20432;-82
2024/02/14 03:42:27;;;;;;;3.17;1.27;;;22.20;57.90;;;;;;5055916;28;20430;-82
2024/02/14 03:45:00;;;;;;;2.90;1.37;;;22.20;58.00;;;;;;5055658;28;20797;-82
2024/02/14 03:47:26;;;;;;;2.53;1.30;;;22.20;57.90;;;;;;5055522;28;20437;-83
2024/02/14 03:49:54;;;;;;;1.90;1.10;;;22.20;58.00;;;;;;5055407;28;20437;-82
2024/02/14 03:52:22;;;;;;;2.63;1.40;;;22.20;58.00;;;;;;5055928;28;20516;-83
2024/02/14 03:54:50;;;;;;;1.90;1.17;;;22.20;58.00;;;;;;5055781;28;20568;-83
2024/02/14 03:57:17;;;;;;;1.87;1.10;;;22.20;58.00;;;;;;5055475;28;20471;-82
2024/02/14 03:59:44;;;;;;;2.37;1.17;;;22.20;58.00;;;;;;5055525;28;20468;-82
2024/02/14 04:02:11;;;;;;;1.80;0.90;;;22.20;58.00;;;;;;5055664;28;20440;-82
2024/02/14 04:04:39;;;;;;;1.70;0.90;;;22.20;58.00;;;;;;5054963;28;20445;-83
2024/02/14 04:07:08;;;;;;;2.53;1.30;;;22.20;58.00;;;;;;5055131;28;20445;-82
2024/02/14 04:09:35;;;;;;;2.87;1.20;;;22.20;58.00;;;;;;5055160;28;20451;-83
2024/02/14 04:12:02;;;;;;;2.20;1.10;;;22.20;58.00;;;;;;5037048;28;20929;-83
2024/02/14 04:14:29;;;;;;;1.50;0.80;;;22.20;58.00;;;;;;5054880;28;20445;-82
2024/02/14 04:16:55;;;;;;;2.20;1.20;;;22.20;57.90;;;;;;5054735;28;20442;-83
2024/02/14 04:19:22;;;;;;;2.10;1.20;;;22.20;57.90;;;;;;5054502;28;20755;-83
2024/02/14 04:21:50;;;;;;;2.53;1.30;;;22.20;57.90;;;;;;5054740;28;20807;-83
2024/02/14 04:24:18;;;;;;;2.50;1.07;;;22.20;57.90;;;;;;5054794;28;20852;-83
2024/02/14 04:26:45;;;;;;;1.70;1.07;;;22.20;57.90;;;;;;5054459;28;20438;-82
2024/02/14 04:29:11;;;;;;;1.70;1.00;;;22.20;57.90;;;;;;5054807;28;20433;-83
2024/02/14 04:31:38;;;;;;;1.80;1.00;;;22.20;58.00;;;;;;5054682;28;20429;-82
2024/02/14 04:34:07;;;;;;;2.07;1.00;;;22.20;57.90;;;;;;5054451;28;20472;-83
2024/02/14 04:36:35;;;;;;;2.33;1.10;;;22.30;58.00;;;;;;5054334;28;20493;-83
2024/02/14 04:39:02;;;;;;;1.77;0.97;;;22.20;57.90;;;;;;5054467;28;20921;-83
2024/02/14 04:41:30;;;;;;;1.90;0.90;;;22.20;58.00;;;;;;5054354;28;20549;-84
2024/02/14 04:43:57;;;;;;;1.80;1.17;;;22.20;58.50;;;;;;5054482;28;20433;-83
2024/02/14 04:46:24;;;;;;;1.80;0.97;;;22.20;57.90;;;;;;5054436;28;20811;-82
2024/02/14 04:48:51;;;;;;;1.70;0.97;;;22.20;57.90;;;;;;5054632;28;20950;-83
2024/02/14 04:51:17;;;;;;;4.07;1.00;;;22.20;57.90;;;;;;5054531;28;20461;-82
2024/02/14 04:53:44;;;;;;;1.60;1.10;;;22.20;57.90;;;;;;5053537;28;20437;-83
2024/02/14 04:56:11;;;;;;;1.60;1.00;;;22.20;57.90;;;;;;5053536;28;20481;-85
2024/02/14 04:58:39;;;;;;;1.80;1.13;;;22.20;57.90;;;;;;5053498;28;20437;-82
2024/02/14 05:01:07;;;;;;;1.73;1.03;;;22.20;57.90;;;;;;5054172;28;20448;-82
2024/02/14 05:03:33;;;;;;;1.87;1.03;;;22.30;58.00;;;;;;5054566;28;20842;-83
2024/02/14 05:06:02;;;;;;;1.40;0.83;;;22.20;57.90;;;;;;5046497;28;20475;-82
2024/02/14 05:08:29;;;;;;;1.83;0.90;;;22.30;57.90;;;;;;5062820;28;20468;-83
2024/02/14 05:10:56;;;;;;;1.50;0.90;;;22.30;57.90;;;;;;5057426;28;20437;-83
2024/02/14 05:13:23;;;;;;;1.70;0.97;;;22.30;57.90;;;;;;5053862;28;20445;-83
2024/02/14 05:15:52;;;;;;;2.30;1.07;;;22.30;57.90;;;;;;5054096;28;20603;-83
2024/02/14 05:18:18;;;;;;;2.13;1.10;;;22.30;57.90;;;;;;5053578;28;20927;-86
2024/02/14 05:20:46;;;;;;;2.63;0.90;;;22.30;57.90;;;;;;5053558;28;20467;-83
2024/02/14 05:23:13;;;;;;;3.03;1.50;;;22.30;57.90;;;;;;5053513;28;20857;-83
2024/02/14 05:25:39;;;;;;;1.50;0.90;;;22.30;57.90;;;;;;5053466;28;20766;-82
2024/02/14 05:28:07;;;;;;;1.40;0.90;;;22.30;57.80;;;;;;5053939;28;20444;-83
2024/02/14 05:30:36;;;;;;;2.27;1.23;;;22.30;57.90;;;;;;5053969;28;20499;-82
2024/02/14 05:33:04;;;;;;;2.10;0.93;;;22.30;57.80;;;;;;5053561;28;20524;-86
2024/02/14 05:35:31;;;;;;;1.60;1.00;;;22.30;57.80;;;;;;5053148;28;20489;-83
2024/02/14 05:37:58;;;;;;;1.60;1.00;;;22.30;57.80;;;;;;5052696;28;20441;-83
2024/02/14 05:40:25;;;;;;;1.70;1.13;;;22.40;57.90;;;;;;5053474;28;20447;-83
2024/02/14 05:42:52;;;;;;;1.60;1.00;;;22.30;57.80;;;;;;5053427;28;20771;-83
2024/02/14 05:45:19;;;;;;;1.60;0.90;;;22.40;57.80;;;;;;5053420;28;20445;-83
2024/02/14 05:47:45;;;;;;;1.93;1.10;;;22.40;57.80;;;;;;5053367;28;20983;-83
2024/02/14 05:50:14;;;;;;;1.70;0.80;;;22.40;57.80;;;;;;5053492;28;20825;-83
2024/02/14 05:52:40;;;;;;;1.60;0.90;;;22.40;57.80;;;;;;5055000;28;20985;-83
2024/02/14 05:55:09;;;;;;;1.70;0.80;;;22.40;57.80;;;;;;5061554;28;20437;-82
2024/02/14 05:57:36;;;;;;;2.10;1.27;;;22.40;57.90;;;;;;5054092;28;20995;-83
2024/02/14 06:00:04;;;;;;;1.50;0.80;;;22.40;57.90;;;;;;5053468;28;20437;-82
2024/02/14 06:02:31;;;;;;;1.60;0.90;;;22.40;57.90;;;;;;5053725;28;20440;-81
2024/02/14 06:04:57;;;;;;;1.70;1.00;;;22.40;57.90;;;;;;5053056;28;20437;-81
2024/02/14 06:07:25;;;;;;;1.60;0.90;;;22.40;57.90;;;;;;5053662;28;20437;-85
2024/02/14 06:09:52;;;;;;;1.93;1.10;;;22.30;57.80;;;;;;5055485;28;20435;-82
2024/02/14 06:12:19;;;;;;;1.97;0.90;;;22.30;57.90;;;;;;5053329;28;20921;-82
2024/02/14 06:14:51;;;;;;;1.53;0.83;;;22.30;57.80;;;;;;5055356;28;20440;-82
2024/02/14 06:17:18;;;;;;;1.50;0.90;;;22.40;57.90;;;;;;5053530;28;20473;-87
2024/02/14 06:19:45;;;;;;;1.50;0.90;;;22.30;57.80;;;;;;5052795;28;20468;-84
2024/02/14 06:22:12;;;;;;;1.50;0.80;;;22.40;57.90;;;;;;5053298;28;20848;-86
2024/02/14 06:24:41;;;;;;;1.70;1.00;;;22.50;58.00;;;;;;5053986;28;20765;-84
2024/02/14 06:27:09;;;;;;;1.80;0.90;;;22.40;57.90;;;;;;5053453;28;20983;-81
2024/02/14 06:29:35;;;;;;;1.80;1.00;;;22.40;57.90;;;;;;5052674;28;20935;-85
2024/02/14 06:32:02;;;;;;;1.50;0.80;;;22.40;58.50;;;;;;5052754;28;20441;-82
2024/02/14 06:34:29;;;;;;;1.87;1.03;;;22.40;57.80;;;;;;5052798;28;20475;-86
2024/02/14 06:36:56;;;;;;;2.67;0.80;;;22.40;57.90;;;;;;5053346;28;20483;-81
2024/02/14 06:39:23;;;;;;;1.77;0.80;;;22.40;57.90;;;;;;5052983;28;20430;-82
2024/02/14 06:41:51;;;;;;;1.60;0.87;;;22.40;57.90;;;;;;5052952;28;20437;-82
2024/02/14 06:44:22;;;;;;;1.50;0.80;;;22.40;57.90;;;;;;5052636;28;20441;-85
2024/02/14 06:46:48;;;;;;;1.43;0.73;;;22.40;57.80;;;;;;5052937;28;20854;-82
2024/02/14 06:49:17;;;;;;;1.67;0.97;;;22.40;57.80;;;;;;5052837;28;20429;-82
2024/02/14 06:51:44;;;;;;;1.60;0.80;;;22.40;57.80;;;;;;5056253;28;20463;-82
2024/02/14 06:54:12;;;;;;;1.60;0.80;;;22.50;57.90;;;;;;5056414;28;20525;-82
2024/02/14 06:56:39;;;;;;;2.00;1.00;;;22.50;57.90;;;;;;5056295;28;20477;-82
2024/02/14 06:59:07;;;;;;;1.40;0.77;;;22.40;57.80;;;;;;5056681;28;20444;-87
2024/02/14 07:01:34;;;;;;;1.60;0.90;;;22.50;57.90;;;;;;5057204;28;20540;-83
2024/02/14 07:04:03;;;;;;;1.40;0.80;;;22.50;57.90;;;;;;5055824;28;21222;-83
2024/02/14 07:06:30;;;;;;;1.70;0.90;;;22.50;57.90;;;;;;5055483;28;20445;-83
2024/02/14 07:08:56;;;;;;;1.80;1.00;;;22.50;57.90;;;;;;5055968;28;20562;-82
2024/02/14 07:11:24;;;;;;;1.50;0.80;;;22.50;57.80;;;;;;5055960;28;20933;-83
2024/02/14 07:13:50;;;;;;;5.63;1.10;;;22.50;57.90;;;;;;5055809;28;20436;-82
2024/02/14 07:16:19;;;;;;;8.00;1.00;;;22.50;58.00;;;;;;5038198;28;20858;-83
2024/02/14 07:18:46;;;;;;;2.47;0.93;;;22.50;58.00;;;;;;5055961;28;20444;-83
2024/02/14 07:21:12;;;;;;;3.10;1.00;;;22.50;58.00;;;;;;5055880;28;20461;-83
2024/02/14 07:23:39;;;;;;;1.63;0.90;;;22.60;58.10;;;;;;5056072;28;20429;-83
2024/02/14 07:26:06;;;;;;;5.30;0.97;;;22.50;58.10;;;;;;5055911;28;20438;-83
2024/02/14 07:28:33;;;;;;;2.60;0.97;;;22.50;58.20;;;;;;5055855;28;20478;-85
2024/02/14 07:30:59;;;;;;;2.97;1.20;;;22.50;58.20;;;;;;5055577;28;20924;-83
2024/02/14 07:33:28;;;;;;;2.60;1.40;;;22.50;58.30;;;;;;5054503;28;20446;-83
2024/02/14 07:35:54;;;;;;;32.17;26.07;;;22.50;58.30;;;;;;5035778;28;20485;-85
2024/02/14 07:38:22;;;;;;;38.80;31.10;;;22.50;58.70;;;;;;5035666;28;20434;-83
2024/02/14 07:40:49;;;;;;;38.40;29.40;;;22.50;59.00;;;;;;5035502;28;20446;-81
2024/02/14 07:43:16;;;;;;;31.40;24.63;;;22.50;59.10;;;;;;5035975;28;20439;-82
2024/02/14 07:45:43;;;;;;;30.90;22.57;;;22.50;59.10;;;;;;5035555;28;20440;-82
2024/02/14 07:48:09;;;;;;;33.10;23.70;;;22.50;59.10;;;;;;5035264;28;20446;-83
2024/02/14 07:50:38;;;;;;;30.70;23.13;;;22.50;59.10;;;;;;5035252;28;20469;-83
2024/02/14 07:53:06;;;;;;;32.43;23.60;;;22.50;59.10;;;;;;5035267;28;20953;-82
2024/02/14 07:55:33;;;;;;;28.23;21.70;;;22.60;59.10;;;;;;5035223;28;20447;-82
2024/02/14 07:58:00;;;;;;;27.47;21.50;;;22.60;59.20;;;;;;5035060;28;20438;-84
2024/02/14 08:00:27;;;;;;;24.87;20.60;;;22.60;59.30;;;;;;5035036;28;20441;-83
2024/02/14 08:02:53;;;;;;;25.80;18.80;;;22.60;59.20;;;;;;5034344;28;20448;-83
2024/02/14 08:05:20;;;;;;;22.43;18.73;;;22.60;59.20;;;;;;5035177;28;20442;-83
2024/02/14 08:07:48;;;;;;;21.93;19.23;;;22.60;59.30;;;;;;5035141;28;20446;-82
2024/02/14 08:10:15;;;;;;;11.50;7.60;;;22.60;59.30;;;;;;5034866;28;20976;-81
2024/02/14 08:12:42;;;;;;;9.97;6.30;;;22.60;59.20;;;;;;5035147;28;20464;-82
2024/02/14 08:15:10;;;;;;;8.80;7.73;;;22.50;59.30;;;;;;5034924;28;20961;-82
2024/02/14 08:17:37;;;;;;;17.13;13.50;;;22.50;59.10;;;;;;5035703;28;20486;-82
2024/02/14 08:20:05;;;;;;;16.47;13.03;;;22.50;59.40;;;;;;5034835;28;20577;-82
2024/02/14 08:22:31;;;;;;;14.83;12.50;;;22.50;59.50;;;;;;5049342;28;20441;-82
2024/02/14 08:25:00;;;;;;;17.20;14.03;;;22.50;59.50;;;;;;5046213;28;20449;-82
2024/02/14 08:27:27;;;;;;;18.37;12.43;;;22.60;59.50;;;;;;5038298;28;20446;-81
2024/02/14 08:29:54;;;;;;;17.40;13.33;;;22.70;60.20;;;;;;5033684;28;20470;-85
2024/02/14 08:32:21;;;;;;;13.23;10.83;;;22.60;59.50;;;;;;5034036;28;20533;-81
2024/02/14 08:34:48;;;;;;;15.13;12.17;;;22.60;59.40;;;;;;5044337;28;20480;-83
2024/02/14 08:37:14;;;;;;;12.63;9.67;;;22.60;59.50;;;;;;5054121;28;20607;-81
2024/02/14 08:39:41;;;;;;;14.80;10.40;;;22.60;59.30;;;;;;5053808;28;20947;-82
2024/02/14 08:42:09;;;;;;;14.50;10.93;;;22.60;59.40;;;;;;5053831;28;20495;-83
2024/02/14 08:44:37;;;;;;;13.67;10.73;;;22.60;59.50;;;;;;5054265;28;20888;-82
2024/02/14 08:47:04;;;;;;;14.90;11.20;;;22.60;59.50;;;;;;5054419;28;20445;-82
2024/02/14 08:52:13;;;;;;;13.43;9.13;;;22.60;59.50;;;;;;4992175;28;20458;-80
2024/02/14 08:54:40;;;;;;;15.07;9.40;;;22.60;60.00;;;;;;5053130;28;20452;-84
2024/02/14 08:57:08;;;;;;;12.83;9.10;;;22.60;59.40;;;;;;5035152;28;20485;-85
2024/02/14 08:59:35;;;;;;;12.90;9.87;;;22.60;59.50;;;;;;5053883;28;20451;-84
2024/02/14 09:02:02;;;;;;;11.43;9.50;;;22.70;59.60;;;;;;5065192;28;20464;-84
2024/02/14 09:04:29;;;;;;;9.70;7.97;;;22.60;59.40;;;;;;5054428;28;20445;-87
2024/02/14 09:06:56;;;;;;;10.70;8.40;;;22.70;59.50;;;;;;5054270;28;20445;-83
2024/02/14 09:09:23;;;;;;;10.50;8.27;;;22.60;59.40;;;;;;5054265;28;20444;-83
2024/02/14 09:11:50;;;;;;;10.67;8.47;;;22.60;59.50;;;;;;5053849;28;20445;-88
2024/02/14 09:14:18;;;;;;;11.80;8.97;;;22.60;59.50;;;;;;5053135;28;20444;-82
2024/02/14 09:16:45;;;;;;;10.03;7.73;;;22.70;59.60;;;;;;5033344;28;20519;-82
2024/02/14 09:19:13;;;;;;;9.67;7.77;;;22.60;59.50;;;;;;5033549;28;20442;-91
2024/02/14 09:21:40;;;;;;;10.27;8.47;;;22.60;59.50;;;;;;5033181;28;20450;-87
2024/02/14 09:24:07;;;;;;;10.53;8.50;;;22.60;59.50;;;;;;5034816;28;20442;-87
2024/02/14 09:26:33;;;;;;;9.10;6.63;;;22.60;59.60;;;;;;5051677;28;20441;-87
2024/02/14 09:29:00;;;;;;;10.73;7.23;;;22.60;59.50;;;;;;5054242;28;20473;-90
2024/02/14 09:31:28;;;;;;;9.87;6.90;;;22.60;59.50;;;;;;5053754;28;20446;-83
2024/02/14 09:33:57;;;;;;;8.30;6.93;;;22.60;59.50;;;;;;5057201;28;20499;-87
2024/02/14 09:36:28;;;;;;;7.70;6.90;;;22.60;59.50;;;;;;5074899;28;20482;-88
2024/02/14 09:38:55;;;;;;;9.23;6.47;;;22.70;59.50;;;;;;5074929;28;20977;-86
2024/02/14 09:41:36;;;;;;;10.20;6.57;;;22.60;60.00;;;;;;5063463;28;20433;-92
2024/02/14 09:44:04;;;;;;;9.10;6.73;;;22.60;59.40;;;;;;5054483;28;20430;-84
2024/02/14 09:46:33;;;;;;;9.00;6.90;;;22.70;59.50;;;;;;5054144;28;20451;-92
2024/02/14 09:49:00;;;;;;;9.77;6.90;;;22.60;59.40;;;;;;5054454;28;20436;-91
2024/02/14 09:51:28;;;;;;;8.47;6.40;;;22.60;59.40;;;;;;5054676;28;20571;-90
2024/02/14 09:53:56;;;;;;;9.10;6.73;;;22.60;59.30;;;;;;5053819;28;20503;-89
2024/02/14 09:56:23;;;;;;;7.13;5.60;;;22.60;59.40;;;;;;5052941;28;20441;-77
2024/02/14 09:58:55;;;;;;;11.27;7.03;;;22.70;59.40;;;;;;5041385;28;20445;-77
2024/02/14 10:01:23;;;;;;;7.63;5.17;;;22.60;59.90;;;;;;5049980;28;20449;-80
2024/02/14 10:03:52;;;;;;;8.13;5.43;;;22.60;59.30;;;;;;5051752;28;20456;-77
2024/02/14 10:06:20;;;;;;;8.53;5.97;;;22.60;59.30;;;;;;5051694;28;20485;-79
2024/02/14 10:08:47;;;;;;;7.20;5.30;;;22.60;59.30;;;;;;5049856;28;20449;-77
2024/02/14 10:11:15;;;;;;;6.83;5.17;;;22.70;59.30;;;;;;5032130;28;20439;-77
2024/02/14 10:13:42;;;;;;;8.87;4.90;;;22.70;59.20;;;;;;5044972;28;20453;-77
2024/02/14 10:16:09;;;;;;;8.17;4.67;;;22.70;59.10;;;;;;5051066;28;20828;-88
2024/02/14 10:18:36;;;;;;;6.90;5.10;;;22.70;59.20;;;;;;5064172;28;20524;-76
2024/02/14 10:21:04;;;;;;;13.73;5.30;;;22.70;59.30;;;;;;5072507;28;20464;-91
2024/02/14 10:23:32;;;;;;;10.90;5.90;;;22.70;59.30;;;;;;5073487;28;20444;-80
2024/02/14 10:26:00;;;;;;;11.33;5.80;;;22.70;59.30;;;;;;5071452;28;20954;-85
2024/02/14 10:28:28;;;;;;;18.07;5.40;;;22.70;59.30;;;;;;5073080;28;20518;-81
2024/02/14 10:30:56;;;;;;;18.63;5.90;;;22.70;59.20;;;;;;5063921;28;20453;-80
2024/02/14 10:33:23;;;;;;;30.63;5.70;;;22.70;59.30;;;;;;5056157;28;20933;-80
2024/02/14 10:35:53;;;;;;;13.23;5.67;;;22.70;59.30;;;;;;5055785;28;20876;-80
2024/02/14 10:38:23;;;;;;;10.70;4.80;;;22.70;59.30;;;;;;5054702;28;20501;-80
2024/02/14 10:40:50;;;;;;;14.43;4.87;;;22.70;59.40;;;;;;5054954;28;20433;-82
2024/02/14 10:43:17;;;;;;;9.17;4.77;;;22.70;59.40;;;;;;5053184;28;21011;-83
2024/02/14 10:45:44;;;;;;;8.03;4.73;;;22.70;59.50;;;;;;5056216;28;20811;-81
2024/02/14 10:48:13;;;;;;;6.00;4.20;;;22.80;59.60;;;;;;5055358;28;20480;-78
2024/02/14 10:50:42;;;;;;;8.13;4.30;;;22.70;59.50;;;;;;5055318;28;20519;-78
2024/02/14 10:53:14;;;;;;;5.37;2.73;;;22.70;59.10;;;;;;5054043;28;20552;-87
2024/02/14 10:55:48;;;;;;;11.97;3.13;;;22.70;59.10;;;;;;5053868;28;20444;-78
2024/02/14 10:58:16;;;;;;;5.93;2.30;;;22.70;59.00;;;;;;5054273;28;20492;-79
2024/02/14 11:00:44;;;;;;;5.43;3.00;;;22.70;59.10;;;;;;5053895;28;20578;-78
2024/02/14 11:03:14;;;;;;;4.50;2.70;;;22.60;59.10;;;;;;5053875;28;20452;-78
2024/02/14 11:05:46;;;;;;;5.30;2.73;;;22.70;59.20;;;;;;5053699;28;20540;-81
2024/02/14 11:08:15;;;;;;;7.80;3.07;;;22.60;59.40;;;;;;5054733;28;20441;-82
2024/02/14 11:10:43;;;;;;;5.17;3.37;;;22.70;60.20;;;;;;5055568;28;20446;-82
2024/02/14 11:13:14;;;;;;;16.47;3.40;;;22.70;60.40;;;;;;5055131;28;20949;-82
2024/02/14 11:15:45;;;;;;;6.40;3.07;;;22.70;60.30;;;;;;5055091;28;20456;-82
2024/02/14 11:18:12;;;;;;;13.60;3.17;;;22.70;60.30;;;;;;5054922;28;20518;-82
2024/02/14 11:20:46;;;;;;;5.07;3.03;;;22.70;60.10;;;;;;5055065;28;20823;-81
2024/02/14 11:23:13;;;;;;;5.13;2.70;;;22.80;60.20;;;;;;5055000;28;20528;-81
2024/02/14 11:25:40;;;;;;;4.80;2.60;;;22.80;60.20;;;;;;5055050;28;20524;-81
2024/02/14 11:28:19;;;;;;;4.83;2.27;;;22.70;60.10;;;;;;5055190;28;20941;-80
2024/02/14 11:30:46;;;;;;;10.20;2.47;;;22.80;60.30;;;;;;5055124;28;20441;-80
2024/02/14 11:33:18;;;;;;;4.70;2.47;;;22.80;60.40;;;;;;5054727;28;20544;-81
2024/02/14 11:35:47;;;;;;;8.00;2.90;;;22.80;60.40;;;;;;5054203;28;20999;-82
2024/02/14 11:38:14;;;;;;;5.57;2.90;;;22.70;60.30;;;;;;5054711;28;20669;-82
2024/02/14 11:40:41;;;;;;;3.60;2.23;;;22.80;60.50;;;;;;5055907;28;20579;-81
2024/02/14 11:43:13;;;;;;;3.37;2.50;;;22.80;60.40;;;;;;5070784;28;20509;-81
2024/02/14 11:45:42;;;;;;;5.60;2.00;;;22.70;60.30;;;;;;5073041;28;20463;-81
2024/02/14 11:48:10;;;;;;;4.50;2.10;;;22.70;60.30;;;;;;5055996;28;20437;-81
2024/02/14 11:50:39;;;;;;;7.20;2.30;;;22.70;60.40;;;;;;5054887;28;20837;-82
2024/02/14 11:53:07;;;;;;;3.80;2.40;;;22.70;60.40;;;;;;5054733;28;20445;-82
2024/02/14 11:55:37;;;;;;;6.10;2.50;;;22.80;60.40;;;;;;5055159;28;20444;-82
2024/02/14 11:58:04;;;;;;;4.20;2.50;;;22.80;60.50;;;;;;5054274;28;20501;-81
2024/02/14 12:00:30;;;;;;;9.73;2.30;;;22.80;60.40;;;;;;5054304;28;20446;-84
2024/02/14 12:02:59;;;;;;;3.33;2.10;;;22.80;60.40;;;;;;5054282;28;20449;-82
2024/02/14 12:05:26;;;;;;;3.43;2.40;;;22.70;60.30;;;;;;5054414;28;20788;-81
2024/02/14 12:07:53;;;;;;;4.10;2.27;;;22.70;60.40;;;;;;5054660;28;20441;-83
2024/02/14 12:10:21;;;;;;;4.77;2.20;;;22.70;60.40;;;;;;5054666;28;20446;-82
2024/02/14 12:12:49;;;;;;;2.57;1.90;;;22.80;60.40;;;;;;5053927;28;20483;-86
2024/02/14 12:15:16;;;;;;;4.17;1.80;;;22.80;60.30;;;;;;5054602;28;20472;-87
2024/02/14 12:17:43;;;;;;;6.13;1.60;;;22.80;59.80;;;;;;5054285;28;20484;-88
2024/02/14 12:20:13;;;;;;;5.87;1.60;;;22.80;59.50;;;;;;5054514;28;20464;-86
2024/02/14 12:22:40;;;;;;;2.87;1.77;;;22.70;59.30;;;;;;5054494;28;20444;-88
2024/02/14 12:25:10;;;;;;;6.60;1.87;;;22.70;59.80;;;;;;5054944;28;20445;-86
2024/02/14 12:27:38;;;;;;;4.00;1.53;;;22.70;59.80;;;;;;5054658;28;20513;-87
2024/02/14 12:30:07;;;;;;;3.13;1.80;;;22.80;59.80;;;;;;5054592;28;20449;-88
2024/02/14 12:32:33;;;;;;;3.20;1.30;;;22.80;59.80;;;;;;5036639;28;20441;-86
2024/02/14 12:35:00;;;;;;;2.57;1.77;;;22.80;59.80;;;;;;5054044;28;21182;-86
2024/02/14 12:37:29;;;;;;;3.73;1.80;;;22.90;59.90;;;;;;5054302;28;20487;-86
2024/02/14 13:36:23;;;;;;;3.20;1.80;;;22.70;59.90;;;;;;4991889;28;20960;-85
2024/02/14 13:38:50;;;;;;;2.00;1.23;;;22.70;60.00;;;;;;5011390;28;20511;-88
2024/02/14 13:41:17;;;;;;;2.17;1.30;;;22.70;59.80;;;;;;5009961;28;20451;-87
2024/02/14 13:43:44;;;;;;;6.53;1.30;;;22.70;59.80;;;;;;5011674;28;20445;-87